createdAt,value
2018-06-30T00:00:15.010Z,17.39
2018-06-30T00:01:14.783Z,17.45
2018-06-30T00:02:14.760Z,17.45
2018-06-30T00:03:14.735Z,17.40
2018-06-30T00:04:14.714Z,17.40
2018-06-30T00:05:14.690Z,17.43
2018-06-30T00:06:14.662Z,17.38
2018-06-30T00:07:14.840Z,17.38
2018-06-30T00:08:14.613Z,17.20
2018-06-30T00:09:14.589Z,17.21
2018-06-30T00:10:14.568Z,17.20
2018-06-30T00:11:15.393Z,17.24
2018-06-30T00:12:14.519Z,17.30
2018-06-30T00:13:14.700Z,17.38
2018-06-30T00:14:14.673Z,17.33
2018-06-30T00:15:14.445Z,17.32
2018-06-30T00:16:14.420Z,17.33
2018-06-30T00:17:14.396Z,17.33
2018-06-30T00:18:14.377Z,17.20
2018-06-30T00:19:14.351Z,17.30
2018-06-30T00:20:14.324Z,17.27
2018-06-30T00:21:14.301Z,17.21
2018-06-30T00:22:14.278Z,17.22
2018-06-30T00:23:14.255Z,17.24
2018-06-30T00:24:14.231Z,17.20
2018-06-30T00:25:14.205Z,17.18
2018-06-30T00:26:14.181Z,17.07
2018-06-30T00:27:14.156Z,17.07
2018-06-30T00:28:14.334Z,17.06
2018-06-30T00:29:14.112Z,17.09
2018-06-30T00:30:14.088Z,17.10
2018-06-30T00:31:14.062Z,16.98
2018-06-30T00:32:14.037Z,17.03
2018-06-30T00:33:14.014Z,17.00
2018-06-30T00:34:13.991Z,17.02
2018-06-30T00:35:13.964Z,17.02
2018-06-30T00:36:13.940Z,17.09
2018-06-30T00:37:13.924Z,17.03
2018-06-30T00:38:13.907Z,16.98
2018-06-30T00:39:13.866Z,17.07
2018-06-30T00:40:13.844Z,17.03
2018-06-30T00:41:13.816Z,17.07
2018-06-30T00:42:13.795Z,16.99
2018-06-30T00:43:13.774Z,17.02
2018-06-30T00:44:13.748Z,17.03
2018-06-30T00:45:13.927Z,16.91
2018-06-30T00:46:13.700Z,17.06
2018-06-30T00:47:13.977Z,17.00
2018-06-30T00:48:13.649Z,17.00
2018-06-30T00:49:13.623Z,16.98
2018-06-30T00:50:13.599Z,16.98
2018-06-30T00:51:13.576Z,17.00
2018-06-30T00:52:13.767Z,16.85
2018-06-30T00:53:13.531Z,16.90
2018-06-30T00:54:13.505Z,16.84
2018-06-30T00:55:13.485Z,16.90
2018-06-30T00:56:13.657Z,16.84
2018-06-30T00:57:13.633Z,16.80
2018-06-30T00:58:13.405Z,16.75
2018-06-30T00:59:13.381Z,16.85
2018-06-30T01:00:13.354Z,16.80
2018-06-30T01:01:13.332Z,16.88
2018-06-30T01:02:13.311Z,16.82
2018-06-30T01:03:13.285Z,16.81
2018-06-30T01:04:13.260Z,16.81
2018-06-30T01:05:13.235Z,16.78
2018-06-30T01:06:13.209Z,16.73
2018-06-30T01:07:13.390Z,16.77
2018-06-30T01:08:13.363Z,16.72
2018-06-30T01:09:13.138Z,16.69
2018-06-30T01:10:13.317Z,16.66
2018-06-30T01:11:13.291Z,16.75
2018-06-30T01:12:13.065Z,16.67
2018-06-30T01:13:13.041Z,16.52
2018-06-30T01:14:13.015Z,16.55
2018-06-30T01:15:12.990Z,16.44
2018-06-30T01:16:12.965Z,16.47
2018-06-30T01:17:12.941Z,16.51
2018-06-30T01:18:12.919Z,16.54
2018-06-30T01:19:13.097Z,16.42
2018-06-30T01:20:13.070Z,16.44
2018-06-30T01:21:12.845Z,16.37
2018-06-30T01:22:12.821Z,16.47
2018-06-30T01:23:12.804Z,16.40
2018-06-30T01:24:12.774Z,16.44
2018-06-30T01:25:12.747Z,16.34
2018-06-30T01:26:12.721Z,16.37
2018-06-30T01:27:12.696Z,16.23
2018-06-30T01:28:12.670Z,16.32
2018-06-30T01:29:12.647Z,16.27
2018-06-30T01:30:12.623Z,16.18
2018-06-30T01:31:12.602Z,16.17
2018-06-30T01:32:12.578Z,16.16
2018-06-30T01:33:12.550Z,15.99
2018-06-30T01:34:12.524Z,16.01
2018-06-30T01:35:54.857Z,16.04
2018-06-30T01:36:54.628Z,15.99
2018-06-30T01:37:54.603Z,15.95
2018-06-30T01:38:54.580Z,16.04
2018-06-30T01:39:54.553Z,15.95
2018-06-30T01:40:54.532Z,16.01
2018-06-30T01:41:54.502Z,15.99
2018-06-30T01:42:54.682Z,15.98
2018-06-30T01:43:54.477Z,16.07
2018-06-30T01:44:54.430Z,16.01
2018-06-30T01:45:54.405Z,16.03
2018-06-30T01:46:54.379Z,15.96
2018-06-30T01:47:54.355Z,15.95
2018-06-30T01:48:54.328Z,15.99
2018-06-30T01:49:54.305Z,15.93
2018-06-30T01:50:54.284Z,15.93
2018-06-30T01:51:54.255Z,15.92
2018-06-30T01:52:54.230Z,15.86
2018-06-30T01:53:54.204Z,15.92
2018-06-30T01:54:54.190Z,16.04
2018-06-30T01:55:54.167Z,15.98
2018-06-30T01:56:54.338Z,16.11
2018-06-30T01:57:54.109Z,16.03
2018-06-30T01:58:54.288Z,15.99
2018-06-30T01:59:54.058Z,15.95
2018-06-30T02:00:54.033Z,16.06
2018-06-30T02:01:54.010Z,15.95
2018-06-30T02:02:53.985Z,16.01
2018-06-30T02:03:53.959Z,16.03
2018-06-30T02:04:53.934Z,15.96
2018-06-30T02:05:53.910Z,15.91
2018-06-30T02:06:53.884Z,15.88
2018-06-30T02:07:53.867Z,15.89
2018-06-30T02:08:53.838Z,15.93
2018-06-30T02:09:53.812Z,15.95
2018-06-30T02:10:53.786Z,15.96
2018-06-30T02:11:53.759Z,15.91
2018-06-30T02:12:53.734Z,16.01
2018-06-30T02:13:53.711Z,16.01
2018-06-30T02:14:53.686Z,15.93
2018-06-30T02:15:53.662Z,15.92
2018-06-30T02:16:53.638Z,15.91
2018-06-30T02:17:53.611Z,15.74
2018-06-30T02:18:53.595Z,15.84
2018-06-30T02:19:53.560Z,15.76
2018-06-30T02:20:53.536Z,15.89
2018-06-30T02:21:53.511Z,15.71
2018-06-30T02:23:35.841Z,15.76
2018-06-30T02:24:35.614Z,15.76
2018-06-30T02:25:35.591Z,15.78
2018-06-30T02:26:35.565Z,15.78
2018-06-30T02:27:35.538Z,15.76
2018-06-30T02:28:35.512Z,15.76
2018-06-30T02:29:35.488Z,15.71
2018-06-30T02:30:35.463Z,15.66
2018-06-30T02:31:35.441Z,15.62
2018-06-30T02:32:35.420Z,15.66
2018-06-30T02:33:35.389Z,15.64
2018-06-30T02:34:35.366Z,15.59
2018-06-30T02:35:35.340Z,15.58
2018-06-30T02:36:35.316Z,15.52
2018-06-30T02:38:17.644Z,15.41
2018-06-30T02:39:17.420Z,15.55
2018-06-30T02:40:17.391Z,15.44
2018-06-30T02:41:17.369Z,15.51
2018-06-30T02:42:17.339Z,15.52
2018-06-30T02:43:17.319Z,15.51
2018-06-30T02:44:17.289Z,15.46
2018-06-30T02:45:17.267Z,15.44
2018-06-30T02:46:17.241Z,15.52
2018-06-30T02:47:17.220Z,15.43
2018-06-30T02:53:13.052Z,15.40
2018-06-30T02:54:12.219Z,15.35
2018-06-30T02:55:12.395Z,15.37
2018-06-30T02:56:12.162Z,15.44
2018-06-30T02:57:12.339Z,15.33
2018-06-30T02:58:12.112Z,15.37
2018-06-30T02:59:12.085Z,15.18
2018-06-30T03:00:12.061Z,15.34
2018-06-30T03:01:12.090Z,15.34
2018-06-30T03:02:12.213Z,15.23
2018-06-30T03:03:11.991Z,15.27
2018-06-30T03:04:11.959Z,15.25
2018-06-30T03:05:11.935Z,15.27
2018-06-30T03:06:11.908Z,15.22
2018-06-30T03:07:11.884Z,15.28
2018-06-30T03:08:11.856Z,15.28
2018-06-30T03:09:11.833Z,15.23
2018-06-30T03:10:12.014Z,15.22
2018-06-30T03:11:11.785Z,15.19
2018-06-30T03:12:11.761Z,15.19
2018-06-30T03:13:11.732Z,15.22
2018-06-30T03:14:11.711Z,15.22
2018-06-30T03:15:11.685Z,15.18
2018-06-30T03:16:11.656Z,15.22
2018-06-30T03:17:11.664Z,15.22
2018-06-30T03:18:11.613Z,15.22
2018-06-30T03:19:11.581Z,15.19
2018-06-30T03:20:11.559Z,15.25
2018-06-30T03:21:11.532Z,15.16
2018-06-30T03:22:11.507Z,15.07
2018-06-30T03:23:11.483Z,15.07
2018-06-30T03:24:11.456Z,15.09
2018-06-30T03:25:11.433Z,15.05
2018-06-30T03:26:11.410Z,14.98
2018-06-30T03:27:11.381Z,15.01
2018-06-30T03:28:11.355Z,15.00
2018-06-30T03:29:11.329Z,14.95
2018-06-30T03:30:11.310Z,15.01
2018-06-30T03:31:11.283Z,15.03
2018-06-30T03:32:11.258Z,14.97
2018-06-30T03:33:11.236Z,14.97
2018-06-30T03:34:11.207Z,14.97
2018-06-30T03:35:11.182Z,14.97
2018-06-30T03:36:11.156Z,14.94
2018-06-30T03:37:11.132Z,14.93
2018-06-30T03:38:11.110Z,15.04
2018-06-30T03:39:11.079Z,15.01
2018-06-30T03:40:11.055Z,15.11
2018-06-30T03:41:11.029Z,15.05
2018-06-30T03:42:11.004Z,15.05
2018-06-30T03:43:10.977Z,15.01
2018-06-30T03:44:10.957Z,15.05
2018-06-30T03:45:10.936Z,15.20
2018-06-30T03:46:10.922Z,15.27
2018-06-30T03:47:10.882Z,15.43
2018-06-30T03:48:10.858Z,15.62
2018-06-30T03:49:10.830Z,15.68
2018-06-30T03:50:10.804Z,15.70
2018-06-30T03:51:10.780Z,15.86
2018-06-30T03:52:10.758Z,15.86
2018-06-30T03:53:10.939Z,15.74
2018-06-30T03:54:10.909Z,15.96
2018-06-30T03:55:10.688Z,15.98
2018-06-30T03:56:10.660Z,15.96
2018-06-30T03:57:10.638Z,15.98
2018-06-30T03:58:10.811Z,16.10
2018-06-30T03:59:10.787Z,16.17
2018-06-30T04:00:10.563Z,16.22
2018-06-30T04:01:10.539Z,16.26
2018-06-30T04:38:42.563Z,16.87
2018-06-30T04:39:42.336Z,16.92
2018-06-30T04:45:37.578Z,17.33
2018-06-30T04:46:37.352Z,17.51
2018-06-30T04:47:37.326Z,17.49
2018-06-30T04:48:37.305Z,17.66
2018-06-30T04:49:37.279Z,17.66
2018-06-30T04:50:37.254Z,17.70
2018-06-30T04:51:37.239Z,17.87
2018-06-30T04:52:37.213Z,18.05
2018-06-30T04:53:37.395Z,18.54
2018-06-30T04:54:37.168Z,18.41
2018-06-30T04:55:37.145Z,18.46
2018-06-30T04:56:37.324Z,18.69
2018-06-30T04:57:37.139Z,18.97
2018-06-30T04:58:37.077Z,19.07
2018-06-30T04:59:37.069Z,18.71
2018-06-30T05:00:37.032Z,19.02
2018-06-30T05:02:19.369Z,18.74
2018-06-30T05:03:19.147Z,19.06
2018-06-30T05:04:19.123Z,19.31
2018-06-30T05:05:19.103Z,19.23
2018-06-30T05:06:19.279Z,18.97
2018-06-30T05:07:19.056Z,19.47
2018-06-30T05:08:19.038Z,19.21
2018-06-30T05:09:19.015Z,19.32
2018-06-30T05:10:19.200Z,19.31
2018-06-30T05:11:19.175Z,19.61
2018-06-30T05:12:18.955Z,19.85
2018-06-30T05:13:18.931Z,19.65
2018-06-30T05:14:18.908Z,19.57
2018-06-30T05:15:20.088Z,19.50
2018-06-30T05:16:18.870Z,19.30
2018-06-30T05:17:18.844Z,19.25
2018-06-30T05:18:19.026Z,19.62
2018-06-30T05:19:18.803Z,19.58
2018-06-30T05:20:18.783Z,19.64
2018-06-30T05:21:18.786Z,19.52
2018-06-30T05:22:18.742Z,19.89
2018-06-30T05:23:18.722Z,19.95
2018-06-30T05:24:18.701Z,20.00
2018-06-30T05:25:18.678Z,20.17
2018-06-30T05:26:18.659Z,20.16
2018-06-30T05:39:15.457Z,21.85
2018-06-30T05:40:57.592Z,22.14
2018-06-30T05:41:57.572Z,22.09
2018-06-30T05:42:57.547Z,21.48
2018-06-30T05:43:57.328Z,22.04
2018-06-30T05:44:57.506Z,21.48
2018-06-30T05:45:57.283Z,21.61
2018-06-30T05:46:57.470Z,21.68
2018-06-30T05:47:57.449Z,21.53
2018-06-30T05:48:57.429Z,21.56
2018-06-30T05:49:57.616Z,21.34
2018-06-30T05:50:57.389Z,21.13
2018-06-30T05:51:57.369Z,21.01
2018-06-30T05:52:57.147Z,20.60
2018-06-30T05:53:57.127Z,20.88
2018-06-30T05:54:57.108Z,20.94
2018-06-30T05:55:57.090Z,21.26
2018-06-30T05:56:57.070Z,21.19
2018-06-30T05:57:57.050Z,20.83
2018-06-30T05:58:57.036Z,20.85
2018-06-30T05:59:57.019Z,20.73
2018-06-30T06:00:56.995Z,21.22
2018-06-30T06:01:56.976Z,21.53
2018-06-30T06:02:57.767Z,21.68
2018-06-30T06:03:56.940Z,21.63
2018-06-30T06:04:56.918Z,21.82
2018-06-30T06:05:57.102Z,21.91
2018-06-30T06:06:56.881Z,22.27
2018-06-30T06:07:57.067Z,22.59
2018-06-30T06:08:57.047Z,22.74
2018-06-30T06:09:57.086Z,23.06
2018-06-30T06:10:57.013Z,22.38
2018-06-30T06:11:56.993Z,22.05
2018-06-30T06:12:56.777Z,22.36
2018-06-30T06:13:56.753Z,22.38
2018-06-30T06:14:56.737Z,22.94
2018-06-30T06:15:56.739Z,23.21
2018-06-30T06:16:56.699Z,23.19
2018-06-30T06:17:56.679Z,23.47
2018-06-30T06:18:56.867Z,23.45
2018-06-30T06:19:56.849Z,23.35
2018-06-30T06:20:56.831Z,23.59
2018-06-30T06:21:56.611Z,23.49
2018-06-30T06:22:56.592Z,23.00
2018-06-30T06:23:56.574Z,22.70
2018-06-30T06:24:56.759Z,22.54
2018-06-30T06:25:56.545Z,22.52
2018-06-30T06:26:56.521Z,22.64
2018-06-30T06:27:56.507Z,22.26
2018-06-30T06:28:56.489Z,22.19
2018-06-30T06:29:56.469Z,22.27
2018-06-30T06:30:56.654Z,22.51
2018-06-30T06:31:56.438Z,22.75
2018-06-30T06:32:56.422Z,23.22
2018-06-30T06:34:00.445Z,22.97
2018-06-30T06:34:56.589Z,23.31
2018-06-30T06:35:56.570Z,23.06
2018-06-30T06:36:56.354Z,23.47
2018-06-30T06:37:56.335Z,23.77
2018-06-30T06:38:56.315Z,24.14
2018-06-30T06:39:56.304Z,23.99
2018-06-30T06:40:56.289Z,24.04
2018-06-30T06:41:56.268Z,23.68
2018-06-30T06:42:56.252Z,23.31
2018-06-30T06:43:56.233Z,23.78
2018-06-30T06:44:56.218Z,23.94
2018-06-30T06:45:56.232Z,23.90
2018-06-30T06:46:56.183Z,23.67
2018-06-30T06:47:56.170Z,23.68
2018-06-30T06:49:38.513Z,23.34
2018-06-30T06:50:38.295Z,23.64
2018-06-30T06:51:38.285Z,23.34
2018-06-30T06:52:41.287Z,24.14
2018-06-30T06:53:38.246Z,24.00
2018-06-30T06:54:38.228Z,23.72
2018-06-30T06:55:38.213Z,24.00
2018-06-30T06:56:38.402Z,23.14
2018-06-30T06:57:38.183Z,22.52
2018-06-30T06:58:38.176Z,23.07
2018-06-30T06:59:38.362Z,23.26
2018-06-30T07:00:38.149Z,22.96
2018-06-30T07:01:38.383Z,23.14
2018-06-30T07:02:38.101Z,23.60
2018-06-30T07:03:38.086Z,24.05
2018-06-30T07:06:02.591Z,24.00
2018-06-30T07:07:02.373Z,24.09
2018-06-30T07:08:02.356Z,24.48
2018-06-30T07:09:02.346Z,24.90
2018-06-30T07:10:02.525Z,24.60
2018-06-30T07:11:02.396Z,24.63
2018-06-30T07:12:02.497Z,24.12
2018-06-30T07:13:02.283Z,24.00
2018-06-30T07:14:02.265Z,24.30
2018-06-30T07:15:02.258Z,23.97
2018-06-30T07:16:02.233Z,23.94
2018-06-30T07:17:02.219Z,23.71
2018-06-30T07:18:02.401Z,23.52
2018-06-30T07:19:02.183Z,23.59
2018-06-30T07:20:02.181Z,23.99
2018-06-30T07:21:02.155Z,23.18
2018-06-30T07:22:02.353Z,23.57
2018-06-30T07:23:02.125Z,23.68
2018-06-30T07:24:02.111Z,23.72
2018-06-30T07:25:02.096Z,23.93
2018-06-30T07:26:02.083Z,23.16
2018-06-30T07:27:02.070Z,23.21
2018-06-30T07:28:02.052Z,24.02
2018-06-30T07:29:02.034Z,23.59
2018-06-30T07:30:02.264Z,23.42
2018-06-30T07:31:02.199Z,23.47
2018-06-30T07:32:02.152Z,23.93
2018-06-30T07:33:02.123Z,24.09
2018-06-30T07:34:02.057Z,24.30
2018-06-30T07:35:02.147Z,24.06
2018-06-30T07:36:02.134Z,23.89
2018-06-30T07:37:02.120Z,23.97
2018-06-30T07:38:01.911Z,24.05
2018-06-30T07:39:01.887Z,24.09
2018-06-30T07:40:01.873Z,23.96
2018-06-30T07:41:01.856Z,23.84
2018-06-30T07:42:02.043Z,24.16
2018-06-30T07:43:01.826Z,24.64
2018-06-30T07:44:01.812Z,24.82
2018-06-30T07:45:01.804Z,24.45
2018-06-30T07:46:01.987Z,24.05
2018-06-30T07:47:01.979Z,24.30
2018-06-30T07:48:01.956Z,24.60
2018-06-30T07:49:01.941Z,24.51
2018-06-30T07:50:01.770Z,24.84
2018-06-30T07:51:01.924Z,24.23
2018-06-30T07:52:01.897Z,24.08
2018-06-30T07:53:01.680Z,24.11
2018-06-30T07:54:01.869Z,24.64
2018-06-30T07:55:01.652Z,25.07
2018-06-30T07:56:02.455Z,25.36
2018-06-30T08:10:22.849Z,24.61
2018-06-30T08:11:22.632Z,24.90
2018-06-30T08:12:22.822Z,25.38
2018-06-30T08:13:22.601Z,24.97
2018-06-30T08:14:22.789Z,25.49
2018-06-30T08:15:26.209Z,25.63
2018-06-30T08:16:25.995Z,25.30
2018-06-30T08:17:22.750Z,24.80
2018-06-30T08:18:22.533Z,24.74
2018-06-30T08:32:01.593Z,25.34
2018-06-30T08:33:01.379Z,25.75
2018-06-30T08:34:01.362Z,25.74
2018-06-30T08:35:01.349Z,25.35
2018-06-30T08:37:25.862Z,25.41
2018-06-30T08:38:25.646Z,25.34
2018-06-30T08:39:25.632Z,24.98
2018-06-30T08:40:25.618Z,24.66
2018-06-30T08:41:25.599Z,24.63
2018-06-30T08:42:25.588Z,25.26
2018-06-30T08:43:25.608Z,25.82
2018-06-30T08:44:25.768Z,25.90
2018-06-30T08:45:25.753Z,26.06
2018-06-30T08:46:25.743Z,26.01
2018-06-30T08:47:25.724Z,26.16
2018-06-30T08:48:25.711Z,26.28
2018-06-30T08:50:07.864Z,26.28
2018-06-30T08:51:07.697Z,26.21
2018-06-30T08:52:07.633Z,26.75
2018-06-30T08:53:07.620Z,26.65
2018-06-30T08:54:07.607Z,26.54
2018-06-30T08:55:07.594Z,26.08
2018-06-30T08:56:07.582Z,25.81
2018-06-30T08:57:07.572Z,25.69
2018-06-30T08:58:07.560Z,25.83
2018-06-30T08:59:07.751Z,25.96
2018-06-30T09:00:07.534Z,26.36
2018-06-30T09:01:49.887Z,25.72
2018-06-30T09:02:49.671Z,25.71
2018-06-30T09:03:49.659Z,25.48
2018-06-30T09:04:49.647Z,26.35
2018-06-30T09:05:49.633Z,26.69
2018-06-30T09:06:49.826Z,26.56
2018-06-30T09:07:49.609Z,26.81
2018-06-30T09:08:49.801Z,27.27
2018-06-30T09:09:49.796Z,26.73
2018-06-30T09:10:53.612Z,26.64
2018-06-30T09:11:49.616Z,26.35
2018-06-30T09:12:49.549Z,26.57
2018-06-30T09:13:49.538Z,26.23
2018-06-30T09:14:49.532Z,26.36
2018-06-30T09:15:49.514Z,27.27
2018-06-30T09:16:49.504Z,27.03
2018-06-30T09:17:49.491Z,26.94
2018-06-30T09:18:49.479Z,26.72
2018-06-30T09:19:49.471Z,26.57
2018-06-30T09:20:49.459Z,26.84
2018-06-30T09:21:49.447Z,26.94
2018-06-30T09:22:49.434Z,26.83
2018-06-30T09:23:49.424Z,26.87
2018-06-30T09:24:49.409Z,26.12
2018-06-30T09:25:49.401Z,26.01
2018-06-30T09:26:49.591Z,26.13
2018-06-30T09:27:49.377Z,26.61
2018-06-30T09:28:49.368Z,26.78
2018-06-30T09:29:49.610Z,27.08
2018-06-30T09:30:49.345Z,27.48
2018-06-30T09:31:49.334Z,27.15
2018-06-30T09:32:49.321Z,27.34
2018-06-30T09:33:49.312Z,26.42
2018-06-30T09:34:49.302Z,25.98
2018-06-30T09:35:49.289Z,24.90
2018-06-30T09:36:49.284Z,25.02
2018-06-30T09:37:49.280Z,25.61
2018-06-30T09:38:52.076Z,26.24
2018-06-30T09:39:49.243Z,26.32
2018-06-30T09:40:49.236Z,26.51
2018-06-30T09:41:49.224Z,27.18
2018-06-30T09:42:49.214Z,27.34
2018-06-30T09:43:49.203Z,26.96
2018-06-30T09:44:49.250Z,26.76
2018-06-30T09:45:49.174Z,27.09
2018-06-30T09:46:49.161Z,27.65
2018-06-30T09:47:49.152Z,27.83
2018-06-30T09:48:49.143Z,27.30
2018-06-30T09:49:49.131Z,27.02
2018-06-30T09:50:49.126Z,27.20
2018-06-30T09:51:49.108Z,27.30
2018-06-30T09:52:49.308Z,27.01
2018-06-30T09:53:49.088Z,27.33
2018-06-30T09:54:49.080Z,27.16
2018-06-30T09:55:49.068Z,27.27
2018-06-30T09:56:49.108Z,26.66
2018-06-30T09:57:49.045Z,26.50
2018-06-30T09:58:49.032Z,26.23
2018-06-30T09:59:49.021Z,25.85
2018-06-30T10:00:49.216Z,25.78
2018-06-30T10:01:49.002Z,25.66
2018-06-30T10:02:48.991Z,25.54
2018-06-30T10:03:48.981Z,24.94
2018-06-30T10:04:48.969Z,24.80
2018-06-30T10:05:48.956Z,24.36
2018-06-30T10:06:49.152Z,24.33
2018-06-30T10:07:48.933Z,24.61
2018-06-30T10:08:48.922Z,24.23
2018-06-30T10:09:49.113Z,23.69
2018-06-30T10:10:49.100Z,23.35
2018-06-30T10:11:49.088Z,24.55
2018-06-30T10:12:48.872Z,25.27
2018-06-30T10:13:48.859Z,24.61
2018-06-30T10:14:49.047Z,24.11
2018-06-30T10:15:49.036Z,24.14
2018-06-30T10:16:49.020Z,24.46
2018-06-30T10:17:48.806Z,25.14
2018-06-30T10:18:48.791Z,25.42
2018-06-30T10:19:48.979Z,26.16
2018-06-30T10:20:48.799Z,26.68
2018-06-30T10:21:48.953Z,26.98
2018-06-30T10:22:48.742Z,27.52
2018-06-30T10:23:48.724Z,27.55
2018-06-30T10:24:48.708Z,26.66
2018-06-30T10:25:48.697Z,26.35
2018-06-30T10:26:48.835Z,26.98
2018-06-30T10:27:48.672Z,27.25
2018-06-30T10:28:48.664Z,26.81
2018-06-30T10:29:48.650Z,26.90
2018-06-30T10:30:48.643Z,26.24
2018-06-30T10:31:48.627Z,26.65
2018-06-30T10:32:48.613Z,25.20
2018-06-30T10:33:48.597Z,25.29
2018-06-30T10:34:48.582Z,24.53
2018-06-30T10:35:48.571Z,23.89
2018-06-30T10:36:48.557Z,23.74
2018-06-30T10:37:48.547Z,23.90
2018-06-30T10:38:48.734Z,23.96
2018-06-30T10:39:48.719Z,24.94
2018-06-30T10:40:48.512Z,25.12
2018-06-30T10:41:48.494Z,26.11
2018-06-30T10:42:48.478Z,26.68
2018-06-30T10:43:48.464Z,26.79
2018-06-30T10:44:48.449Z,27.53
2018-06-30T10:45:48.438Z,27.40
2018-06-30T10:46:48.436Z,27.46
2018-06-30T10:47:48.414Z,27.40
2018-06-30T10:48:48.602Z,26.32
2018-06-30T10:49:48.391Z,27.01
2018-06-30T10:52:55.064Z,25.66
2018-06-30T10:53:54.848Z,24.84
2018-06-30T10:54:54.835Z,25.71
2018-06-30T10:55:54.823Z,26.16
2018-06-30T10:56:54.811Z,27.08
2018-06-30T10:57:54.798Z,27.68
2018-06-30T10:58:54.786Z,27.40
2018-06-30T10:59:54.780Z,27.66
2018-06-30T11:00:54.773Z,27.61
2018-06-30T11:01:54.755Z,26.83
2018-06-30T11:02:54.744Z,26.01
2018-06-30T11:03:54.747Z,25.97
2018-06-30T11:04:54.716Z,25.41
2018-06-30T11:05:54.739Z,25.12
2018-06-30T11:06:55.704Z,24.80
2018-06-30T11:07:54.885Z,24.52
2018-06-30T11:08:54.667Z,24.61
2018-06-30T11:09:54.860Z,24.64
2018-06-30T11:10:54.675Z,25.69
2018-06-30T11:11:54.831Z,26.19
2018-06-30T11:12:54.817Z,26.72
2018-06-30T11:13:54.803Z,26.87
2018-06-30T11:14:54.791Z,26.24
2018-06-30T11:15:54.572Z,26.46
2018-06-30T11:16:54.763Z,27.31
2018-06-30T11:17:54.750Z,27.88
2018-06-30T11:18:57.365Z,28.08
2018-06-30T11:19:57.351Z,28.24
2018-06-30T11:20:54.521Z,28.35
2018-06-30T11:21:54.706Z,28.64
2018-06-30T11:22:54.490Z,28.87
2018-06-30T11:23:54.479Z,28.67
2018-06-30T11:24:54.670Z,27.27
2018-06-30T11:25:54.659Z,26.34
2018-06-30T11:26:54.650Z,25.91
2018-06-30T11:27:54.635Z,25.07
2018-06-30T11:28:54.624Z,24.89
2018-06-30T11:29:54.612Z,25.11
2018-06-30T11:30:54.605Z,25.20
2018-06-30T11:31:54.392Z,26.12
2018-06-30T11:32:54.580Z,27.12
2018-06-30T11:33:54.573Z,27.78
2018-06-30T11:34:54.554Z,28.06
2018-06-30T11:36:36.706Z,28.08
2018-06-30T11:37:36.492Z,28.45
2018-06-30T11:38:36.480Z,28.74
2018-06-30T11:39:36.474Z,28.74
2018-06-30T11:40:36.676Z,29.12
2018-06-30T11:41:36.668Z,29.00
2018-06-30T11:42:36.640Z,29.00
2018-06-30T11:43:39.254Z,28.92
2018-06-30T11:44:37.433Z,28.55
2018-06-30T11:45:36.416Z,28.27
2018-06-30T11:46:36.604Z,27.40
2018-06-30T11:47:36.394Z,26.57
2018-06-30T11:48:36.588Z,26.35
2018-06-30T11:49:36.574Z,25.53
2018-06-30T11:50:36.566Z,25.27
2018-06-30T11:51:36.356Z,25.36
2018-06-30T11:52:36.543Z,25.31
2018-06-30T11:53:36.530Z,25.02
2018-06-30T11:54:36.518Z,25.01
2018-06-30T11:55:36.512Z,24.89
2018-06-30T11:56:36.496Z,24.77
2018-06-30T11:57:36.481Z,24.56
2018-06-30T11:58:36.472Z,24.99
2018-06-30T11:59:36.260Z,25.90
2018-06-30T12:00:36.508Z,26.06
2018-06-30T12:01:36.426Z,26.83
2018-06-30T12:02:36.415Z,26.83
2018-06-30T12:03:36.510Z,27.31
2018-06-30T12:04:36.398Z,27.02
2018-06-30T12:05:36.375Z,27.52
2018-06-30T12:06:36.364Z,27.93
2018-06-30T12:07:36.351Z,28.08
2018-06-30T12:08:36.344Z,28.20
2018-06-30T12:09:36.128Z,28.91
2018-06-30T12:10:36.114Z,28.88
2018-06-30T12:11:36.303Z,27.95
2018-06-30T12:12:36.090Z,27.03
2018-06-30T12:13:36.080Z,25.67
2018-06-30T12:14:36.067Z,24.97
2018-06-30T12:15:36.060Z,25.29
2018-06-30T12:16:36.048Z,25.79
2018-06-30T12:17:36.036Z,26.04
2018-06-30T12:18:36.022Z,26.36
2018-06-30T12:19:36.009Z,26.71
2018-06-30T12:20:35.997Z,26.79
2018-06-30T12:21:35.985Z,26.83
2018-06-30T12:22:35.980Z,26.93
2018-06-30T12:23:36.166Z,27.40
2018-06-30T12:24:36.159Z,28.02
2018-06-30T12:25:35.944Z,28.25
2018-06-30T12:26:35.934Z,27.76
2018-06-30T12:28:18.288Z,28.17
2018-06-30T12:29:18.278Z,27.96
2018-06-30T12:30:18.126Z,27.86
2018-06-30T12:31:18.261Z,27.78
2018-06-30T12:32:18.311Z,27.78
2018-06-30T12:33:18.035Z,28.39
2018-06-30T12:34:18.233Z,27.71
2018-06-30T12:35:18.019Z,27.03
2018-06-30T12:36:18.212Z,26.24
2018-06-30T12:37:18.202Z,25.85
2018-06-30T12:38:18.191Z,25.90
2018-06-30T12:39:18.181Z,25.19
2018-06-30T12:40:18.172Z,25.89
2018-06-30T12:41:17.959Z,26.16
2018-06-30T12:42:17.955Z,26.41
2018-06-30T12:43:17.935Z,26.61
2018-06-30T12:44:17.924Z,26.65
2018-06-30T12:45:17.913Z,26.36
2018-06-30T12:46:17.904Z,26.60
2018-06-30T12:47:17.895Z,26.61
2018-06-30T12:48:17.888Z,26.88
2018-06-30T12:49:17.871Z,26.57
2018-06-30T12:50:17.863Z,26.75
2018-06-30T12:51:17.850Z,27.31
2018-06-30T12:52:17.846Z,27.74
2018-06-30T12:53:17.832Z,27.72
2018-06-30T12:54:17.878Z,27.78
2018-06-30T12:56:00.179Z,27.52
2018-06-30T12:56:59.967Z,27.30
2018-06-30T12:57:59.961Z,26.61
2018-06-30T12:58:59.945Z,26.68
2018-06-30T13:00:00.137Z,26.66
2018-06-30T13:00:59.926Z,26.13
2018-06-30T13:02:00.116Z,25.41
2018-06-30T13:03:00.107Z,24.84
2018-06-30T13:04:00.100Z,24.87
2018-06-30T13:05:00.084Z,25.02
2018-06-30T13:06:00.071Z,25.61
2018-06-30T13:07:00.866Z,25.82
2018-06-30T13:08:00.049Z,26.01
2018-06-30T13:08:59.829Z,26.44
2018-06-30T13:10:00.025Z,26.91
2018-06-30T13:11:00.010Z,26.73
2018-06-30T13:11:59.795Z,26.93
2018-06-30T13:12:59.792Z,26.84
2018-06-30T13:13:59.770Z,27.24
2018-06-30T13:14:59.761Z,27.59
2018-06-30T13:15:59.952Z,27.45
2018-06-30T13:16:59.940Z,26.88
2018-06-30T13:17:59.733Z,26.47
2018-06-30T13:18:59.713Z,26.36
2018-06-30T13:20:42.073Z,27.02
2018-06-30T13:21:41.853Z,26.91
2018-06-30T13:22:41.842Z,27.06
2018-06-30T13:23:41.832Z,27.30
2018-06-30T13:24:41.817Z,27.71
2018-06-30T13:25:41.805Z,28.20
2018-06-30T13:26:41.794Z,27.81
2018-06-30T13:27:41.784Z,27.65
2018-06-30T13:28:41.815Z,27.21
2018-06-30T13:29:41.769Z,27.03
2018-06-30T13:30:41.757Z,27.13
2018-06-30T13:31:41.740Z,27.76
2018-06-30T13:32:41.731Z,27.52
2018-06-30T13:33:41.732Z,27.40
2018-06-30T13:34:41.716Z,26.72
2018-06-30T13:35:41.696Z,26.20
2018-06-30T13:37:41.673Z,25.14
2018-06-30T13:38:41.661Z,25.57
2018-06-30T13:39:41.649Z,25.29
2018-06-30T13:40:41.690Z,25.82
2018-06-30T13:41:41.626Z,26.54
2018-06-30T13:42:41.627Z,26.88
2018-06-30T13:43:41.673Z,26.20
2018-06-30T13:44:41.596Z,26.84
2018-06-30T13:45:41.575Z,27.30
2018-06-30T13:46:41.563Z,27.88
2018-06-30T13:47:41.556Z,28.21
2018-06-30T13:48:41.543Z,28.05
2018-06-30T13:49:41.531Z,28.42
2018-06-30T13:50:41.519Z,28.08
2018-06-30T13:51:41.508Z,27.28
2018-06-30T13:52:41.512Z,26.94
2018-06-30T13:53:41.690Z,26.93
2018-06-30T13:54:41.475Z,26.72
2018-06-30T13:55:41.471Z,26.57
2018-06-30T13:56:41.453Z,27.01
2018-06-30T13:57:41.443Z,26.93
2018-06-30T13:58:41.435Z,26.78
2018-06-30T13:59:41.422Z,26.69
2018-06-30T14:00:41.416Z,25.94
2018-06-30T14:01:41.403Z,25.57
2018-06-30T14:02:41.392Z,24.75
2018-06-30T14:03:41.382Z,24.29
2018-06-30T14:04:41.372Z,24.64
2018-06-30T14:05:41.356Z,24.64
2018-06-30T14:06:41.343Z,24.86
2018-06-30T14:07:41.331Z,25.61
2018-06-30T14:08:41.320Z,26.01
2018-06-30T14:09:41.310Z,25.71
2018-06-30T14:10:41.301Z,26.00
2018-06-30T14:11:41.281Z,26.29
2018-06-30T14:12:41.285Z,26.83
2018-06-30T14:13:41.260Z,26.83
2018-06-30T14:14:41.248Z,27.35
2018-06-30T14:15:41.234Z,27.91
2018-06-30T14:16:41.220Z,28.32
2018-06-30T14:17:41.214Z,27.40
2018-06-30T14:18:41.229Z,27.35
2018-06-30T14:19:41.185Z,27.52
2018-06-30T14:30:31.640Z,25.66
2018-06-30T14:31:31.628Z,25.63
2018-06-30T14:32:31.412Z,25.51
2018-06-30T14:36:20.247Z,25.91
2018-06-30T14:37:20.028Z,26.09
2018-06-30T15:00:49.327Z,25.11
2018-06-30T15:01:49.117Z,25.45
2018-06-30T15:02:49.096Z,25.61
2018-06-30T15:03:49.087Z,26.01
2018-06-30T15:04:49.085Z,26.38
2018-06-30T15:05:49.055Z,26.68